sensor_id;sensor_type;location;lat;lon;timestamp;pressure;altitude;pressure_sealevel;temperature;humidity
55271;BME280;41132;47.162;9.470;2023-03-13T00:00:16;96391.47;;;4.26;100.00
55271;BME280;41132;47.162;9.470;2023-03-13T00:02:42;96377.53;;;4.27;100.00
55271;BME280;41132;47.162;9.470;2023-03-13T00:05:10;96378.81;;;4.22;100.00
55271;BME280;41132;47.162;9.470;2023-03-13T00:07:36;96383.81;;;4.25;100.00
55271;BME280;41132;47.162;9.470;2023-03-13T00:10:01;96391.91;;;4.31;100.00
55271;BME280;41132;47.162;9.470;2023-03-13T00:12:26;96380.94;;;4.39;100.00
55271;BME280;41132;47.162;9.470;2023-03-13T00:14:52;96364.28;;;4.30;100.00
55271;BME280;41132;47.162;9.470;2023-03-13T00:17:17;96366.91;;;4.30;100.00
55271;BME280;41132;47.162;9.470;2023-03-13T00:19:42;96358.03;;;4.22;100.00
55271;BME280;41132;47.162;9.470;2023-03-13T00:22:08;96364.06;;;4.22;100.00
55271;BME280;41132;47.162;9.470;2023-03-13T00:24:33;96363.47;;;4.41;100.00
55271;BME280;41132;47.162;9.470;2023-03-13T00:26:58;96364.72;;;4.58;100.00
55271;BME280;41132;47.162;9.470;2023-03-13T00:29:28;96370.63;;;4.60;100.00
55271;BME280;41132;47.162;9.470;2023-03-13T00:31:53;96359.19;;;4.51;100.00
55271;BME280;41132;47.162;9.470;2023-03-13T00:34:19;96355.66;;;4.52;100.00
55271;BME280;41132;47.162;9.470;2023-03-13T00:36:44;96352.34;;;4.50;100.00
55271;BME280;41132;47.162;9.470;2023-03-13T00:39:09;96364.50;;;4.61;100.00
55271;BME280;41132;47.162;9.470;2023-03-13T00:41:36;96343.59;;;4.40;100.00
55271;BME280;41132;47.162;9.470;2023-03-13T00:44:02;96330.66;;;4.17;100.00
55271;BME280;41132;47.162;9.470;2023-03-13T00:46:29;96344.69;;;4.26;100.00
55271;BME280;41132;47.162;9.470;2023-03-13T00:48:54;96341.38;;;4.35;100.00
55271;BME280;41132;47.162;9.470;2023-03-13T00:51:21;96330.03;;;4.36;100.00
55271;BME280;41132;47.162;9.470;2023-03-13T00:53:48;96326.94;;;4.43;100.00
55271;BME280;41132;47.162;9.470;2023-03-13T00:56:18;96318.91;;;4.46;100.00
55271;BME280;41132;47.162;9.470;2023-03-13T00:58:45;96314.66;;;4.45;100.00
55271;BME280;41132;47.162;9.470;2023-03-13T01:01:21;96317.50;;;4.42;100.00
55271;BME280;41132;47.162;9.470;2023-03-13T01:03:49;96316.44;;;4.44;100.00
55271;BME280;41132;47.162;9.470;2023-03-13T01:06:17;96324.81;;;4.48;100.00
55271;BME280;41132;47.162;9.470;2023-03-13T01:08:43;96335.41;;;4.56;100.00
55271;BME280;41132;47.162;9.470;2023-03-13T01:11:11;96328.69;;;4.53;100.00
55271;BME280;41132;47.162;9.470;2023-03-13T01:13:37;96321.63;;;4.44;100.00
55271;BME280;41132;47.162;9.470;2023-03-13T01:16:04;96325.84;;;4.56;100.00
55271;BME280;41132;47.162;9.470;2023-03-13T01:18:30;96318.78;;;4.47;100.00
55271;BME280;41132;47.162;9.470;2023-03-13T01:20:55;96318.63;;;4.60;100.00
55271;BME280;41132;47.162;9.470;2023-03-13T01:23:21;96312.50;;;4.61;100.00
55271;BME280;41132;47.162;9.470;2023-03-13T01:25:46;96319.09;;;4.65;100.00
55271;BME280;41132;47.162;9.470;2023-03-13T01:28:12;96312.25;;;4.64;100.00
55271;BME280;41132;47.162;9.470;2023-03-13T01:30:37;96312.03;;;4.56;100.00
55271;BME280;41132;47.162;9.470;2023-03-13T01:33:02;96324.53;;;4.62;100.00
55271;BME280;41132;47.162;9.470;2023-03-13T01:35:28;96327.13;;;4.62;100.00
55271;BME280;41132;47.162;9.470;2023-03-13T01:37:53;96322.06;;;4.60;100.00
55271;BME280;41132;47.162;9.470;2023-03-13T01:40:19;96312.72;;;4.58;100.00
55271;BME280;41132;47.162;9.470;2023-03-13T01:42:49;96314.84;;;4.64;100.00
55271;BME280;41132;47.162;9.470;2023-03-13T01:48:19;96306.69;;;4.90;100.00
55271;BME280;41132;47.162;9.470;2023-03-13T01:50:46;96302.13;;;4.82;100.00
55271;BME280;41132;47.162;9.470;2023-03-13T01:53:11;96306.59;;;4.91;100.00
55271;BME280;41132;47.162;9.470;2023-03-13T01:55:37;96303.16;;;4.91;100.00
55271;BME280;41132;47.162;9.470;2023-03-13T01:58:02;96314.94;;;4.95;100.00
55271;BME280;41132;47.162;9.470;2023-03-13T02:00:31;96304.53;;;4.95;100.00
55271;BME280;41132;47.162;9.470;2023-03-13T02:03:03;96310.91;;;5.02;100.00
55271;BME280;41132;47.162;9.470;2023-03-13T02:05:30;96303.66;;;5.06;100.00
55271;BME280;41132;47.162;9.470;2023-03-13T02:08:07;96305.81;;;5.00;100.00
55271;BME280;41132;47.162;9.470;2023-03-13T02:10:38;96305.56;;;5.03;100.00
55271;BME280;41132;47.162;9.470;2023-03-13T02:13:04;96299.44;;;5.05;100.00
55271;BME280;41132;47.162;9.470;2023-03-13T02:15:30;96290.53;;;5.07;100.00
55271;BME280;41132;47.162;9.470;2023-03-13T02:17:56;96291.81;;;5.13;100.00
55271;BME280;41132;47.162;9.470;2023-03-13T02:20:22;96299.06;;;5.09;100.00
55271;BME280;41132;47.162;9.470;2023-03-13T02:22:59;96291.81;;;5.13;100.00
55271;BME280;41132;47.162;9.470;2023-03-13T02:27:56;96288.97;;;5.16;100.00
55271;BME280;41132;47.162;9.470;2023-03-13T02:30:23;96277.91;;;5.02;100.00
55271;BME280;41132;47.162;9.470;2023-03-13T02:32:49;96263.06;;;4.93;100.00
55271;BME280;41132;47.162;9.470;2023-03-13T02:35:17;96282.31;;;5.02;100.00
55271;BME280;41132;47.162;9.470;2023-03-13T02:37:47;96272.84;;;5.01;100.00
55271;BME280;41132;47.162;9.470;2023-03-13T02:40:17;96277.09;;;5.02;100.00
55271;BME280;41132;47.162;9.470;2023-03-13T02:42:45;96268.50;;;4.90;100.00
55271;BME280;41132;47.162;9.470;2023-03-13T02:45:13;96275.69;;;4.98;100.00
55271;BME280;41132;47.162;9.470;2023-03-13T02:47:40;96269.03;;;4.84;100.00
55271;BME280;41132;47.162;9.470;2023-03-13T02:50:05;96271.59;;;4.95;100.00
55271;BME280;41132;47.162;9.470;2023-03-13T02:52:38;96283.63;;;4.96;100.00
55271;BME280;41132;47.162;9.470;2023-03-13T02:55:18;96262.38;;;4.91;100.00
55271;BME280;41132;47.162;9.470;2023-03-13T02:57:47;96265.22;;;4.88;100.00
55271;BME280;41132;47.162;9.470;2023-03-13T03:00:13;96253.44;;;4.84;100.00
55271;BME280;41132;47.162;9.470;2023-03-13T03:02:42;96247.69;;;4.90;100.00
55271;BME280;41132;47.162;9.470;2023-03-13T03:05:10;96258.75;;;4.82;100.00
55271;BME280;41132;47.162;9.470;2023-03-13T03:07:36;96257.56;;;4.87;100.00
55271;BME280;41132;47.162;9.470;2023-03-13T03:10:02;96254.38;;;4.83;100.00
55271;BME280;41132;47.162;9.470;2023-03-13T03:12:28;96249.31;;;4.81;100.00
55271;BME280;41132;47.162;9.470;2023-03-13T03:14:53;96265.47;;;4.85;100.00
55271;BME280;41132;47.162;9.470;2023-03-13T03:17:19;96249.16;;;4.83;100.00
55271;BME280;41132;47.162;9.470;2023-03-13T03:19:44;96246.50;;;4.73;100.00
55271;BME280;41132;47.162;9.470;2023-03-13T03:22:10;96248.41;;;4.71;100.00
55271;BME280;41132;47.162;9.470;2023-03-13T03:24:35;96239.13;;;4.78;100.00
55271;BME280;41132;47.162;9.470;2023-03-13T03:27:01;96242.25;;;4.72;100.00
55271;BME280;41132;47.162;9.470;2023-03-13T03:29:26;96246.00;;;4.79;100.00
55271;BME280;41132;47.162;9.470;2023-03-13T03:31:52;96253.06;;;4.89;100.00
55271;BME280;41132;47.162;9.470;2023-03-13T03:34:17;96240.81;;;4.79;100.00
55271;BME280;41132;47.162;9.470;2023-03-13T03:36:43;96240.34;;;4.74;100.00
55271;BME280;41132;47.162;9.470;2023-03-13T03:39:08;96235.59;;;4.79;100.00
55271;BME280;41132;47.162;9.470;2023-03-13T03:41:34;96228.50;;;4.81;100.00
55271;BME280;41132;47.162;9.470;2023-03-13T03:44:01;96224.13;;;4.82;100.00
55271;BME280;41132;47.162;9.470;2023-03-13T03:46:27;96217.84;;;4.85;100.00
55271;BME280;41132;47.162;9.470;2023-03-13T03:48:52;96224.69;;;4.86;100.00
55271;BME280;41132;47.162;9.470;2023-03-13T03:51:19;96225.84;;;4.93;100.00
55271;BME280;41132;47.162;9.470;2023-03-13T03:53:44;96232.25;;;4.89;100.00
55271;BME280;41132;47.162;9.470;2023-03-13T03:56:09;96226.84;;;5.01;100.00
55271;BME280;41132;47.162;9.470;2023-03-13T03:58:35;96234.25;;;5.06;100.00
55271;BME280;41132;47.162;9.470;2023-03-13T04:01:00;96245.63;;;5.05;100.00
55271;BME280;41132;47.162;9.470;2023-03-13T04:03:26;96247.63;;;5.01;100.00
55271;BME280;41132;47.162;9.470;2023-03-13T04:05:51;96233.75;;;4.91;100.00
55271;BME280;41132;47.162;9.470;2023-03-13T04:08:17;96238.19;;;5.00;100.00
55271;BME280;41132;47.162;9.470;2023-03-13T04:10:42;96226.50;;;4.95;100.00
55271;BME280;41132;47.162;9.470;2023-03-13T04:13:07;96218.47;;;4.98;100.00
55271;BME280;41132;47.162;9.470;2023-03-13T04:15:33;96220.13;;;4.99;100.00
55271;BME280;41132;47.162;9.470;2023-03-13T04:17:58;96221.63;;;5.01;100.00
55271;BME280;41132;47.162;9.470;2023-03-13T04:20:24;96210.13;;;5.04;100.00
55271;BME280;41132;47.162;9.470;2023-03-13T04:22:49;96208.63;;;5.01;100.00
55271;BME280;41132;47.162;9.470;2023-03-13T04:25:15;96212.38;;;5.09;100.00
55271;BME280;41132;47.162;9.470;2023-03-13T04:27:40;96200.44;;;5.06;100.00
55271;BME280;41132;47.162;9.470;2023-03-13T04:30:06;96202.50;;;5.02;100.00
55271;BME280;41132;47.162;9.470;2023-03-13T04:32:32;96192.63;;;5.06;100.00
55271;BME280;41132;47.162;9.470;2023-03-13T04:34:57;96199.31;;;4.99;100.00
55271;BME280;41132;47.162;9.470;2023-03-13T04:37:23;96182.31;;;4.95;100.00
55271;BME280;41132;47.162;9.470;2023-03-13T04:39:48;96174.69;;;5.03;100.00
55271;BME280;41132;47.162;9.470;2023-03-13T04:42:13;96171.97;;;5.05;100.00
55271;BME280;41132;47.162;9.470;2023-03-13T04:44:39;96175.13;;;5.08;100.00
55271;BME280;41132;47.162;9.470;2023-03-13T04:47:04;96178.81;;;5.06;100.00
55271;BME280;41132;47.162;9.470;2023-03-13T04:49:30;96176.09;;;5.07;100.00
55271;BME280;41132;47.162;9.470;2023-03-13T04:51:55;96174.69;;;5.03;100.00
55271;BME280;41132;47.162;9.470;2023-03-13T04:54:21;96170.47;;;5.02;100.00
55271;BME280;41132;47.162;9.470;2023-03-13T04:56:46;96172.00;;;5.14;100.00
55271;BME280;41132;47.162;9.470;2023-03-13T04:59:13;96169.03;;;5.19;100.00
55271;BME280;41132;47.162;9.470;2023-03-13T05:01:40;96146.69;;;5.16;100.00
55271;BME280;41132;47.162;9.470;2023-03-13T05:04:05;96142.72;;;5.22;100.00
55271;BME280;41132;47.162;9.470;2023-03-13T05:06:31;96146.59;;;5.28;100.00
55271;BME280;41132;47.162;9.470;2023-03-13T05:08:56;96134.53;;;5.27;100.00
55271;BME280;41132;47.162;9.470;2023-03-13T05:11:22;96139.69;;;5.48;100.00
55271;BME280;41132;47.162;9.470;2023-03-13T05:13:47;96133.13;;;5.63;100.00
55271;BME280;41132;47.162;9.470;2023-03-13T05:16:13;96122.31;;;5.68;100.00
55271;BME280;41132;47.162;9.470;2023-03-13T05:18:38;96129.59;;;5.74;100.00
55271;BME280;41132;47.162;9.470;2023-03-13T05:21:04;96136.59;;;5.73;100.00
55271;BME280;41132;47.162;9.470;2023-03-13T05:23:30;96136.97;;;5.59;100.00
55271;BME280;41132;47.162;9.470;2023-03-13T05:25:55;96142.28;;;5.48;100.00
55271;BME280;41132;47.162;9.470;2023-03-13T05:28:21;96149.59;;;5.63;100.00
55271;BME280;41132;47.162;9.470;2023-03-13T05:30:46;96157.97;;;5.77;100.00
55271;BME280;41132;47.162;9.470;2023-03-13T05:33:13;96143.00;;;5.69;100.00
55271;BME280;41132;47.162;9.470;2023-03-13T05:35:38;96154.53;;;5.76;100.00
55271;BME280;41132;47.162;9.470;2023-03-13T05:38:03;96151.94;;;5.76;100.00
55271;BME280;41132;47.162;9.470;2023-03-13T05:40:29;96141.78;;;5.63;100.00
55271;BME280;41132;47.162;9.470;2023-03-13T05:42:55;96137.81;;;5.69;100.00
55271;BME280;41132;47.162;9.470;2023-03-13T05:45:21;96150.28;;;5.75;100.00
55271;BME280;41132;47.162;9.470;2023-03-13T05:47:46;96152.72;;;5.67;100.00
55271;BME280;41132;47.162;9.470;2023-03-13T05:50:11;96168.66;;;5.74;100.00
55271;BME280;41132;47.162;9.470;2023-03-13T05:52:37;96161.13;;;5.71;100.00
55271;BME280;41132;47.162;9.470;2023-03-13T05:55:02;96149.59;;;5.73;100.00
55271;BME280;41132;47.162;9.470;2023-03-13T05:57:28;96158.25;;;5.83;100.00
55271;BME280;41132;47.162;9.470;2023-03-13T05:59:53;96158.53;;;5.90;100.00
55271;BME280;41132;47.162;9.470;2023-03-13T06:02:19;96160.44;;;5.88;100.00
55271;BME280;41132;47.162;9.470;2023-03-13T06:04:45;96160.44;;;5.88;100.00
55271;BME280;41132;47.162;9.470;2023-03-13T06:07:11;96157.03;;;5.88;100.00
55271;BME280;41132;47.162;9.470;2023-03-13T06:09:36;96151.41;;;5.82;100.00
55271;BME280;41132;47.162;9.470;2023-03-13T06:12:01;96130.84;;;5.89;100.00
55271;BME280;41132;47.162;9.470;2023-03-13T06:14:27;96136.19;;;5.78;100.00
55271;BME280;41132;47.162;9.470;2023-03-13T06:16:53;96128.25;;;5.79;100.00
55271;BME280;41132;47.162;9.470;2023-03-13T06:19:19;96132.34;;;5.92;100.00
55271;BME280;41132;47.162;9.470;2023-03-13T06:21:46;96117.53;;;5.82;100.00
55271;BME280;41132;47.162;9.470;2023-03-13T06:24:12;96117.25;;;5.76;100.00
55271;BME280;41132;47.162;9.470;2023-03-13T06:26:37;96104.53;;;5.82;100.00
55271;BME280;41132;47.162;9.470;2023-03-13T06:31:37;96104.69;;;6.00;100.00
55271;BME280;41132;47.162;9.470;2023-03-13T06:46:58;96089.19;;;6.09;100.00
55271;BME280;41132;47.162;9.470;2023-03-13T06:49:24;96101.53;;;6.16;100.00
55271;BME280;41132;47.162;9.470;2023-03-13T06:51:49;96094.13;;;6.21;100.00
55271;BME280;41132;47.162;9.470;2023-03-13T06:54:14;96105.94;;;6.16;100.00
55271;BME280;41132;47.162;9.470;2023-03-13T06:56:40;96090.31;;;6.16;100.00
55271;BME280;41132;47.162;9.470;2023-03-13T06:59:05;96094.41;;;6.18;100.00
55271;BME280;41132;47.162;9.470;2023-03-13T07:01:31;96106.88;;;6.15;100.00
55271;BME280;41132;47.162;9.470;2023-03-13T07:03:56;96095.91;;;6.21;100.00
55271;BME280;41132;47.162;9.470;2023-03-13T07:06:22;96103.19;;;6.27;100.00
55271;BME280;41132;47.162;9.470;2023-03-13T07:08:47;96103.31;;;6.06;100.00
55271;BME280;41132;47.162;9.470;2023-03-13T07:11:13;96101.66;;;6.15;100.00
55271;BME280;41132;47.162;9.470;2023-03-13T07:13:39;96098.66;;;6.29;100.00
55271;BME280;41132;47.162;9.470;2023-03-13T07:16:10;96101.09;;;6.40;100.00
55271;BME280;41132;47.162;9.470;2023-03-13T07:18:35;96096.44;;;6.44;100.00
55271;BME280;41132;47.162;9.470;2023-03-13T07:21:03;96089.16;;;6.38;100.00
55271;BME280;41132;47.162;9.470;2023-03-13T07:23:33;96096.16;;;6.47;100.00
55271;BME280;41132;47.162;9.470;2023-03-13T07:26:01;96104.41;;;6.52;100.00
55271;BME280;41132;47.162;9.470;2023-03-13T07:28:28;96083.13;;;6.57;100.00
55271;BME280;41132;47.162;9.470;2023-03-13T07:31:02;96085.81;;;6.65;100.00
55271;BME280;41132;47.162;9.470;2023-03-13T07:33:28;96089.00;;;6.59;100.00
55271;BME280;41132;47.162;9.470;2023-03-13T07:35:53;96088.59;;;6.63;100.00
55271;BME280;41132;47.162;9.470;2023-03-13T07:38:19;96088.69;;;6.72;100.00
55271;BME280;41132;47.162;9.470;2023-03-13T07:40:50;96075.94;;;6.68;100.00
55271;BME280;41132;47.162;9.470;2023-03-13T07:43:17;96092.78;;;6.84;100.00
55271;BME280;41132;47.162;9.470;2023-03-13T07:45:56;96098.91;;;6.93;100.00
55271;BME280;41132;47.162;9.470;2023-03-13T07:48:24;96092.19;;;7.00;100.00
55271;BME280;41132;47.162;9.470;2023-03-13T07:50:50;96096.81;;;7.06;100.00
55271;BME280;41132;47.162;9.470;2023-03-13T07:53:18;96083.31;;;7.10;100.00
55271;BME280;41132;47.162;9.470;2023-03-13T07:56:00;96100.28;;;7.24;100.00
55271;BME280;41132;47.162;9.470;2023-03-13T07:58:31;96095.75;;;7.26;100.00
55271;BME280;41132;47.162;9.470;2023-03-13T08:00:57;96098.91;;;7.30;100.00
55271;BME280;41132;47.162;9.470;2023-03-13T08:03:23;96081.63;;;7.29;100.00
55271;BME280;41132;47.162;9.470;2023-03-13T08:06:03;96065.28;;;7.27;100.00
55271;BME280;41132;47.162;9.470;2023-03-13T08:08:29;96061.56;;;7.29;100.00
55271;BME280;41132;47.162;9.470;2023-03-13T08:11:06;96057.69;;;7.51;100.00
55271;BME280;41132;47.162;9.470;2023-03-13T08:13:32;96031.28;;;7.55;100.00
55271;BME280;41132;47.162;9.470;2023-03-13T08:18:37;96014.56;;;7.83;100.00
55271;BME280;41132;47.162;9.470;2023-03-13T08:21:05;96008.38;;;7.84;100.00
55271;BME280;41132;47.162;9.470;2023-03-13T08:23:32;96010.00;;;7.85;100.00
55271;BME280;41132;47.162;9.470;2023-03-13T08:26:06;96032.25;;;8.07;100.00
55271;BME280;41132;47.162;9.470;2023-03-13T08:28:32;96013.28;;;8.05;100.00
55271;BME280;41132;47.162;9.470;2023-03-13T08:30:58;96014.38;;;8.21;98.69
55271;BME280;41132;47.162;9.470;2023-03-13T08:33:23;96015.75;;;8.33;100.00
55271;BME280;41132;47.162;9.470;2023-03-13T08:35:48;96013.94;;;8.25;100.00
55271;BME280;41132;47.162;9.470;2023-03-13T08:38:14;96007.88;;;8.43;99.97
55271;BME280;41132;47.162;9.470;2023-03-13T08:40:39;95996.50;;;8.34;100.00
55271;BME280;41132;47.162;9.470;2023-03-13T08:43:04;96016.06;;;8.30;100.00
55271;BME280;41132;47.162;9.470;2023-03-13T08:45:30;95994.25;;;8.39;100.00
55271;BME280;41132;47.162;9.470;2023-03-13T08:47:55;96009.19;;;8.47;100.00
55271;BME280;41132;47.162;9.470;2023-03-13T08:50:21;95999.69;;;8.46;100.00
55271;BME280;41132;47.162;9.470;2023-03-13T08:52:46;96008.78;;;8.60;99.73
55271;BME280;41132;47.162;9.470;2023-03-13T08:55:11;95999.63;;;8.64;96.73
55271;BME280;41132;47.162;9.470;2023-03-13T08:57:37;96000.81;;;8.69;100.00
55271;BME280;41132;47.162;9.470;2023-03-13T09:00:03;95984.97;;;8.71;100.00
55271;BME280;41132;47.162;9.470;2023-03-13T09:02:30;95999.25;;;8.85;100.00
55271;BME280;41132;47.162;9.470;2023-03-13T09:04:56;96000.44;;;8.98;100.00
55271;BME280;41132;47.162;9.470;2023-03-13T09:07:21;95995.72;;;9.02;100.00
55271;BME280;41132;47.162;9.470;2023-03-13T09:09:46;95985.63;;;9.15;100.00
55271;BME280;41132;47.162;9.470;2023-03-13T09:12:12;95994.66;;;9.37;95.95
55271;BME280;41132;47.162;9.470;2023-03-13T09:14:37;96000.44;;;9.49;97.33
55271;BME280;41132;47.162;9.470;2023-03-13T09:17:03;95988.81;;;9.60;94.34
55271;BME280;41132;47.162;9.470;2023-03-13T09:19:28;95974.91;;;9.59;97.85
55271;BME280;41132;47.162;9.470;2023-03-13T09:21:54;95989.84;;;9.83;92.92
55271;BME280;41132;47.162;9.470;2023-03-13T09:24:19;95964.28;;;9.77;97.79
55271;BME280;41132;47.162;9.470;2023-03-13T09:26:44;95968.50;;;9.78;93.65
55271;BME280;41132;47.162;9.470;2023-03-13T09:29:10;95974.72;;;10.18;96.88
55271;BME280;41132;47.162;9.470;2023-03-13T09:31:35;95977.50;;;10.50;94.95
55271;BME280;41132;47.162;9.470;2023-03-13T09:34:02;95966.66;;;10.61;98.00
55271;BME280;41132;47.162;9.470;2023-03-13T09:36:28;95968.03;;;10.88;94.42
55271;BME280;41132;47.162;9.470;2023-03-13T09:38:56;95976.28;;;11.08;98.15
55271;BME280;41132;47.162;9.470;2023-03-13T09:49:34;95934.16;;;11.56;97.16
55271;BME280;41132;47.162;9.470;2023-03-13T09:52:06;95926.06;;;11.65;93.13
55271;BME280;41132;47.162;9.470;2023-03-13T09:54:40;95927.50;;;11.91;93.35
55271;BME280;41132;47.162;9.470;2023-03-13T09:57:11;95922.19;;;11.99;89.65
55271;BME280;41132;47.162;9.470;2023-03-13T10:02:29;95916.94;;;12.44;87.35
55271;BME280;41132;47.162;9.470;2023-03-13T10:05:18;95920.88;;;12.48;85.03
55271;BME280;41132;47.162;9.470;2023-03-13T10:07:44;95916.56;;;12.91;90.86
55271;BME280;41132;47.162;9.470;2023-03-13T10:10:15;95899.25;;;13.19;90.58
55271;BME280;41132;47.162;9.470;2023-03-13T10:12:47;95882.28;;;13.06;82.35
55271;BME280;41132;47.162;9.470;2023-03-13T10:15:31;95893.47;;;13.45;79.77
55271;BME280;41132;47.162;9.470;2023-03-13T10:17:59;95877.72;;;13.51;83.81
55271;BME280;41132;47.162;9.470;2023-03-13T10:20:34;95871.88;;;13.84;78.66
55271;BME280;41132;47.162;9.470;2023-03-13T10:23:15;95860.53;;;13.62;72.96
55271;BME280;41132;47.162;9.470;2023-03-13T10:25:43;95859.97;;;13.88;79.40
55271;BME280;41132;47.162;9.470;2023-03-13T10:28:11;95852.97;;;13.81;72.81
55271;BME280;41132;47.162;9.470;2023-03-13T10:30:40;95839.91;;;13.66;75.60
55271;BME280;41132;47.162;9.470;2023-03-13T10:35:35;95838.81;;;13.60;72.87
55271;BME280;41132;47.162;9.470;2023-03-13T10:38:05;95841.69;;;14.15;76.21
55271;BME280;41132;47.162;9.470;2023-03-13T10:40:32;95845.66;;;14.39;74.87
55271;BME280;41132;47.162;9.470;2023-03-13T10:43:11;95833.88;;;14.41;73.37
55271;BME280;41132;47.162;9.470;2023-03-13T10:45:39;95825.06;;;14.56;76.40
55271;BME280;41132;47.162;9.470;2023-03-13T10:48:29;95820.41;;;14.58;73.97
55271;BME280;41132;47.162;9.470;2023-03-13T10:50:59;95809.34;;;14.48;75.73
55271;BME280;41132;47.162;9.470;2023-03-13T10:53:35;95782.22;;;14.60;72.68
55271;BME280;41132;47.162;9.470;2023-03-13T10:56:13;95774.91;;;14.69;74.29
55271;BME280;41132;47.162;9.470;2023-03-13T10:58:44;95757.88;;;14.72;76.67
55271;BME280;41132;47.162;9.470;2023-03-13T11:01:20;95756.25;;;14.84;72.91
55271;BME280;41132;47.162;9.470;2023-03-13T11:03:48;95755.53;;;14.42;72.28
55271;BME280;41132;47.162;9.470;2023-03-13T11:06:32;95726.66;;;14.34;75.09
55271;BME280;41132;47.162;9.470;2023-03-13T11:11:24;95714.34;;;14.54;75.88
55271;BME280;41132;47.162;9.470;2023-03-13T11:14:06;95720.47;;;14.61;71.85
55271;BME280;41132;47.162;9.470;2023-03-13T11:16:32;95708.00;;;14.42;68.85
55271;BME280;41132;47.162;9.470;2023-03-13T11:24:43;95689.63;;;14.14;70.80
55271;BME280;41132;47.162;9.470;2023-03-13T11:27:31;95697.13;;;14.10;71.10
55271;BME280;41132;47.162;9.470;2023-03-13T11:33:03;95676.59;;;13.99;73.91
55271;BME280;41132;47.162;9.470;2023-03-13T11:35:48;95668.84;;;13.91;76.00
55271;BME280;41132;47.162;9.470;2023-03-13T11:41:01;95663.00;;;14.02;78.03
55271;BME280;41132;47.162;9.470;2023-03-13T11:46:37;95651.81;;;14.00;74.38
55271;BME280;41132;47.162;9.470;2023-03-13T11:49:21;95638.63;;;14.00;76.81
55271;BME280;41132;47.162;9.470;2023-03-13T11:52:00;95635.19;;;13.99;76.53
55271;BME280;41132;47.162;9.470;2023-03-13T11:57:23;95642.72;;;14.09;73.17
55271;BME280;41132;47.162;9.470;2023-03-13T12:00:28;95628.91;;;14.07;69.70
55271;BME280;41132;47.162;9.470;2023-03-13T12:03:07;95640.28;;;14.14;68.77
55271;BME280;41132;47.162;9.470;2023-03-13T12:05:43;95628.31;;;14.12;69.88
55271;BME280;41132;47.162;9.470;2023-03-13T12:08:33;95636.72;;;14.35;68.99
55271;BME280;41132;47.162;9.470;2023-03-13T12:11:53;95633.88;;;14.44;64.08
55271;BME280;41132;47.162;9.470;2023-03-13T12:14:15;95630.66;;;14.55;66.82
55271;BME280;41132;47.162;9.470;2023-03-13T12:16:50;95615.81;;;14.47;61.42
55271;BME280;41132;47.162;9.470;2023-03-13T12:19:26;95600.41;;;14.64;59.51
55271;BME280;41132;47.162;9.470;2023-03-13T12:21:56;95581.50;;;14.54;63.64
55271;BME280;41132;47.162;9.470;2023-03-13T12:24:37;95580.31;;;14.56;65.04
55271;BME280;41132;47.162;9.470;2023-03-13T12:30:30;95575.22;;;14.55;63.91
55271;BME280;41132;47.162;9.470;2023-03-13T12:33:11;95574.22;;;14.63;59.57
55271;BME280;41132;47.162;9.470;2023-03-13T12:35:43;95554.91;;;14.75;58.06
55271;BME280;41132;47.162;9.470;2023-03-13T12:38:11;95552.44;;;14.94;60.15
55271;BME280;41132;47.162;9.470;2023-03-13T12:43:30;95547.31;;;15.06;61.73
55271;BME280;41132;47.162;9.470;2023-03-13T12:48:26;95534.50;;;15.22;61.33
55271;BME280;41132;47.162;9.470;2023-03-13T12:54:01;95516.81;;;15.16;60.69
55271;BME280;41132;47.162;9.470;2023-03-13T12:59:24;95516.03;;;15.09;59.24
55271;BME280;41132;47.162;9.470;2023-03-13T13:01:53;95504.88;;;14.94;61.86
55271;BME280;41132;47.162;9.470;2023-03-13T13:04:26;95496.34;;;14.98;63.68
55271;BME280;41132;47.162;9.470;2023-03-13T13:07:05;95495.16;;;14.94;63.53
55271;BME280;41132;47.162;9.470;2023-03-13T13:12:39;95480.09;;;15.01;62.29
55271;BME280;41132;47.162;9.470;2023-03-13T13:15:28;95486.38;;;15.00;63.76
55271;BME280;41132;47.162;9.470;2023-03-13T13:20:43;95475.38;;;15.10;61.85
55271;BME280;41132;47.162;9.470;2023-03-13T13:23:24;95463.81;;;14.98;63.03
55271;BME280;41132;47.162;9.470;2023-03-13T13:25:51;95444.84;;;15.21;65.35
55271;BME280;41132;47.162;9.470;2023-03-13T13:30:46;95446.41;;;15.35;62.53
55271;BME280;41132;47.162;9.470;2023-03-13T13:35:44;95420.66;;;15.17;60.71
55271;BME280;41132;47.162;9.470;2023-03-13T13:40:58;95434.13;;;15.48;61.81
55271;BME280;41132;47.162;9.470;2023-03-13T13:43:24;95402.09;;;15.31;61.53
55271;BME280;41132;47.162;9.470;2023-03-13T13:48:43;95389.59;;;15.51;61.97
55271;BME280;41132;47.162;9.470;2023-03-13T13:58:58;95359.63;;;15.57;65.47
55271;BME280;41132;47.162;9.470;2023-03-13T14:01:24;95350.97;;;15.75;60.81
55271;BME280;41132;47.162;9.470;2023-03-13T14:03:50;95343.69;;;15.71;59.41
55271;BME280;41132;47.162;9.470;2023-03-13T14:06:24;95337.41;;;15.65;61.04
55271;BME280;41132;47.162;9.470;2023-03-13T14:08:55;95328.28;;;15.61;59.02
55271;BME280;41132;47.162;9.470;2023-03-13T14:11:29;95346.91;;;16.41;51.90
55271;BME280;41132;47.162;9.470;2023-03-13T14:16:32;95336.38;;;16.35;55.96
55271;BME280;41132;47.162;9.470;2023-03-13T14:18:58;95327.75;;;16.21;55.00
55271;BME280;41132;47.162;9.470;2023-03-13T14:21:24;95332.34;;;16.32;48.18
55271;BME280;41132;47.162;9.470;2023-03-13T14:23:51;95319.75;;;16.09;55.12
55271;BME280;41132;47.162;9.470;2023-03-13T14:26:21;95315.94;;;16.42;51.58
55271;BME280;41132;47.162;9.470;2023-03-13T14:28:58;95316.59;;;16.37;49.12
55271;BME280;41132;47.162;9.470;2023-03-13T14:33:56;95293.13;;;16.59;45.96
55271;BME280;41132;47.162;9.470;2023-03-13T14:36:22;95286.97;;;16.47;48.33
55271;BME280;41132;47.162;9.470;2023-03-13T14:38:53;95270.16;;;16.53;45.70
55271;BME280;41132;47.162;9.470;2023-03-13T14:41:46;95262.13;;;16.78;45.20
55271;BME280;41132;47.162;9.470;2023-03-13T14:44:22;95258.06;;;16.76;45.19
55271;BME280;41132;47.162;9.470;2023-03-13T14:46:53;95245.50;;;16.71;43.71